Time;durP1;ratioP1;P1;durP2;ratioP2;P2;SDS_P1;SDS_P2;PMS_P1;PMS_P2;Temp;Humidity;BMP_temperature;BMP_pressure;BME280_temperature;BME280_humidity;BME280_pressure;Samples;Min_cycle;Max_cycle;Signal;HPM_P1;HPM_P2
2022/10/12 00:00:27;;;;;;;12.23;8.52;;;;;;;17.36;69.87;101506.91;2082396;28;20145;-72
2022/10/12 00:01:48;;;;;;;10.98;9.07;;;;;;;17.37;69.86;101514.03;2091418;28;20049;-73
2022/10/12 00:03:12;;;;;;;11.90;9.48;;;;;;;17.39;70.10;101511.38;2080388;28;20131;-73
2022/10/12 00:04:34;;;;;;;11.30;8.80;;;;;;;17.42;70.31;101506.91;2074394;28;20049;-73
2022/10/12 00:06:05;;;;;;;13.13;9.77;;;;;;;17.48;70.28;101503.31;2074479;28;20140;-72
2022/10/12 00:07:27;;;;;;;10.63;8.60;;;;;;;17.49;70.29;101498.00;2087955;28;20048;-72
2022/10/12 00:08:52;;;;;;;9.38;8.05;;;;;;;17.52;70.37;101495.31;2092240;28;21920;-72
2022/10/12 00:10:17;;;;;;;9.60;8.43;;;;;;;17.56;70.38;101498.88;2093950;28;20056;-72
2022/10/12 00:11:40;;;;;;;10.13;7.70;;;;;;;17.58;70.39;101502.44;2077042;28;20038;-72
2022/10/12 00:13:03;;;;;;;10.95;8.77;;;;;;;17.61;70.44;101501.56;2082770;28;20094;-73
2022/10/12 00:14:25;;;;;;;10.57;8.50;;;;;;;17.62;70.33;101503.34;2091284;28;20555;-72
2022/10/12 00:15:47;;;;;;;11.18;8.57;;;;;;;17.60;70.05;101500.63;2091978;28;20045;-73
2022/10/12 00:17:09;;;;;;;10.93;8.38;;;;;;;17.58;70.08;101505.13;2090944;28;20045;-72
2022/10/12 00:18:33;;;;;;;11.57;8.15;;;;;;;17.60;70.14;101508.66;2085688;28;20143;-72
2022/10/12 00:19:54;;;;;;;11.82;8.52;;;;;;;17.64;70.41;101513.16;2091125;28;20131;-72
2022/10/12 00:21:19;;;;;;;10.30;7.50;;;;;;;17.73;70.57;101504.22;2092285;28;20098;-72
2022/10/12 00:22:41;;;;;;;9.30;7.28;;;;;;;17.79;70.41;101502.41;2086917;28;20056;-72
2022/10/12 00:24:04;;;;;;;10.07;8.07;;;;;;;17.82;70.29;101506.88;2082261;28;20053;-72
2022/10/12 00:25:30;;;;;;;9.48;7.88;;;;;;;17.83;70.01;101509.56;2084389;28;20045;-72
2022/10/12 00:26:51;;;;;;;9.23;7.82;;;;;;;17.83;69.83;101500.66;2079474;28;20053;-72
2022/10/12 00:28:14;;;;;;;11.68;8.00;;;;;;;17.84;69.68;101495.31;2069894;28;20053;-72
2022/10/12 00:29:37;;;;;;;11.23;8.30;;;;;;;17.87;69.51;101510.41;2084933;28;20447;-72
2022/10/12 00:30:59;;;;;;;11.38;8.10;;;;;;;17.89;69.38;101505.97;2090905;28;20050;-73
2022/10/12 00:32:22;;;;;;;9.27;7.95;;;;;;;17.88;69.51;101502.41;2084176;28;20072;-72
2022/10/12 00:33:47;;;;;;;13.38;8.60;;;;;;;17.90;69.64;101505.97;2084736;28;20052;-72
2022/10/12 00:35:09;;;;;;;8.63;7.15;;;;;;;17.88;69.41;101502.41;2077318;28;20057;-72
2022/10/12 00:36:34;;;;;;;10.30;7.93;;;;;;;17.85;69.25;101497.06;2085670;28;20040;-72
2022/10/12 00:37:57;;;;;;;9.32;7.60;;;;;;;17.87;69.46;101497.06;2085310;28;20521;-72
2022/10/12 00:39:19;;;;;;;8.90;7.18;;;;;;;17.89;69.38;101498.84;2084984;28;20136;-72
2022/10/12 00:40:43;;;;;;;13.55;8.38;;;;;;;17.91;69.42;101496.19;2088335;28;20570;-72
2022/10/12 00:42:06;;;;;;;12.75;7.82;;;;;;;17.93;69.96;101499.72;2091697;28;20045;-72
2022/10/12 00:43:33;;;;;;;10.02;8.27;;;;;;;17.96;69.88;101497.06;2095524;28;20583;-73
2022/10/12 00:44:55;;;;;;;11.65;7.82;;;;;;;17.99;69.96;101502.38;2087477;28;20041;-72
2022/10/12 00:46:20;;;;;;;10.95;7.50;;;;;;;18.02;70.01;101497.03;2084820;28;20160;-73
2022/10/12 00:47:49;;;;;;;11.40;8.10;;;;;;;18.05;69.87;101501.50;2086514;28;20045;-72
2022/10/12 00:49:15;;;;;;;11.18;7.93;;;;;;;18.07;69.89;101497.91;2087796;28;20147;-73
2022/10/12 00:50:37;;;;;;;9.38;7.68;;;;;;;18.11;69.93;101501.47;2087427;28;20068;-72
2022/10/12 00:52:01;;;;;;;9.88;7.72;;;;;;;18.14;69.69;101496.97;2087018;28;20452;-73
2022/10/12 00:53:26;;;;;;;14.13;7.82;;;;;;;18.16;69.77;101500.56;2086802;28;20147;-72
2022/10/12 00:54:50;;;;;;;11.05;7.93;;;;;;;18.20;69.64;101504.09;2087205;28;20528;-72
2022/10/12 00:56:22;;;;;;;11.15;7.60;;;;;;;18.23;69.47;101496.06;2087200;28;20045;-73
2022/10/12 00:57:45;;;;;;;11.40;7.22;;;;;;;18.24;69.48;101496.06;2088184;28;20055;-73
2022/10/12 00:59:11;;;;;;;11.32;7.68;;;;;;;18.29;69.34;101491.59;2074573;28;20103;-72
2022/10/12 01:00:34;;;;;;;10.13;7.05;;;;;;;18.32;69.31;101494.22;2079008;28;20046;-73
2022/10/12 01:01:55;;;;;;;9.85;7.63;;;;;;;18.31;69.18;101492.44;2077553;28;20059;-72
2022/10/12 01:03:21;;;;;;;10.48;7.80;;;;;;;18.30;68.95;101493.38;2081134;28;20072;-73
2022/10/12 01:04:44;;;;;;;10.50;7.60;;;;;;;18.29;68.97;101488.03;2070787;28;20053;-73
2022/10/12 01:06:08;;;;;;;11.52;7.85;;;;;;;18.27;68.69;101480.00;2076274;28;20099;-73
2022/10/12 01:07:31;;;;;;;10.65;8.15;;;;;;;18.24;68.95;101488.06;2064713;28;20085;-73
2022/10/12 01:08:55;;;;;;;11.85;8.15;;;;;;;18.27;69.09;101488.03;2067064;28;20054;-73
2022/10/12 01:10:16;;;;;;;11.90;7.90;;;;;;;18.29;69.20;101493.38;2076243;28;20050;-74
2022/10/12 01:11:41;;;;;;;11.80;8.57;;;;;;;18.32;69.50;101483.53;2077751;28;20124;-73
2022/10/12 01:13:04;;;;;;;11.40;8.45;;;;;;;18.32;69.55;101483.53;2081129;28;20042;-72
2022/10/12 01:14:28;;;;;;;11.43;7.45;;;;;;;18.33;69.66;101479.97;2073274;28;20129;-73
2022/10/12 01:15:57;;;;;;;12.68;7.13;;;;;;;18.38;69.73;101484.44;2052566;28;20047;-73
2022/10/12 01:17:34;;;;;;;10.20;7.65;;;;;;;18.43;69.71;101479.94;2068737;28;20053;-73
2022/10/12 01:19:10;;;;;;;10.80;7.90;;;;;;;18.44;69.95;101479.94;2071021;28;20482;-73
2022/10/12 01:20:45;;;;;;;13.02;7.20;;;;;;;18.48;69.82;101478.13;2071698;28;20042;-73
2022/10/12 01:22:10;;;;;;;11.55;7.82;;;;;;;18.54;69.81;101478.97;2078542;28;20581;-73
2022/10/12 01:24:11;;;;;;;10.20;8.10;;;;;;;18.61;69.59;101478.09;2070740;28;20045;-73
2022/10/12 01:25:50;;;;;;;10.82;7.63;;;;;;;18.66;69.88;101483.41;2064825;28;20076;-74
2022/10/12 01:27:29;;;;;;;12.88;8.05;;;;;;;18.69;69.65;101481.59;2068391;28;20054;-73
2022/10/12 01:29:05;;;;;;;11.32;8.30;;;;;;;18.73;69.53;101473.53;2079899;28;20144;-73
2022/10/12 01:30:33;;;;;;;12.35;7.97;;;;;;;18.77;69.58;101469.97;2072127;28;20052;-73
2022/10/12 01:32:00;;;;;;;9.45;7.32;;;;;;;18.77;69.31;101465.50;2068512;28;20142;-73
2022/10/12 01:33:29;;;;;;;10.10;7.90;;;;;;;18.71;69.30;101463.75;2078931;28;20107;-73
2022/10/12 01:34:57;;;;;;;10.50;7.82;;;;;;;18.66;69.55;101464.66;2072705;28;20103;-73
2022/10/12 01:36:36;;;;;;;13.27;7.40;;;;;;;18.60;69.76;101468.28;2073237;28;20060;-73
2022/10/12 01:38:08;;;;;;;10.02;7.40;;;;;;;18.62;70.20;101468.28;2072422;28;20050;-73
2022/10/12 01:39:35;;;;;;;;;;;;;;;18.65;70.44;101468.25;2077924;28;20045;-73
2022/10/12 01:41:02;;;;;;;12.20;8.05;;;;;;;18.70;70.55;101461.09;2077367;28;19939;-73
2022/10/12 01:42:29;;;;;;;10.75;8.02;;;;;;;18.72;70.39;101467.31;2067663;28;20047;-73
2022/10/12 01:43:52;;;;;;;8.77;7.38;;;;;;;18.71;70.60;101462.84;2068709;28;20141;-73
2022/10/12 01:45:16;;;;;;;10.10;7.25;;;;;;;18.69;70.72;101462.00;2067026;28;20054;-73
2022/10/12 01:46:56;;;;;;;10.18;7.38;;;;;;;18.70;71.02;101466.44;2073978;28;20073;-73
2022/10/12 01:48:18;;;;;;;12.00;8.27;;;;;;;18.69;71.10;101467.34;2079395;28;20513;-73
2022/10/12 01:49:41;;;;;;;11.02;7.75;;;;;;;18.67;71.17;101472.69;2077606;28;20040;-73
2022/10/12 01:51:04;;;;;;;11.98;8.75;;;;;;;18.70;71.22;101469.13;2062029;28;20061;-73
2022/10/12 01:52:27;;;;;;;16.00;8.02;;;;;;;18.70;71.29;101458.44;2067667;28;20568;-73
2022/10/12 01:54:00;;;;;;;10.25;7.80;;;;;;;18.71;71.53;101466.41;2062253;28;20054;-73
2022/10/12 01:55:27;;;;;;;;;;;;;;;18.68;71.50;101458.44;2077762;28;20046;-73
2022/10/12 01:56:56;;;;;;;10.27;7.70;;;;;;;18.68;71.30;101460.22;2073158;28;20467;-73
2022/10/12 01:58:32;;;;;;;9.75;7.35;;;;;;;18.62;71.47;101458.47;2073176;28;20073;-73
2022/10/12 02:00:03;;;;;;;11.40;8.32;;;;;;;18.57;71.62;101462.97;2088194;28;20481;-73
2022/10/12 02:01:33;;;;;;;14.30;8.40;;;;;;;18.59;72.08;101457.56;2091918;28;20040;-73
2022/10/12 02:03:08;;;;;;;9.40;7.03;;;;;;;18.63;72.33;101462.94;2087330;28;20290;-73
2022/10/12 02:04:36;;;;;;;11.30;8.10;;;;;;;18.65;72.46;101454.88;2086596;28;20113;-73
2022/10/12 02:06:03;;;;;;;10.40;7.80;;;;;;;18.67;72.77;101459.31;2092715;28;20053;-73
2022/10/12 02:07:31;;;;;;;11.82;8.00;;;;;;;18.70;72.92;101458.44;2087080;28;20534;-73
2022/10/12 02:08:58;;;;;;;14.88;8.43;;;;;;;18.70;72.99;101459.31;2092527;28;20139;-73
2022/10/12 02:10:26;;;;;;;11.80;8.13;;;;;;;18.69;73.13;101460.22;2082868;28;20094;-72
2022/10/12 02:11:53;;;;;;;11.55;8.05;;;;;;;18.71;73.10;101460.16;2085413;28;20106;-73
2022/10/12 02:13:17;;;;;;;12.38;8.63;;;;;;;18.70;73.08;101459.31;2093233;28;20047;-74
2022/10/12 02:14:46;;;;;;;11.32;8.35;;;;;;;18.68;73.16;101457.53;2094013;28;20049;-73
2022/10/12 02:16:11;;;;;;;12.02;8.60;;;;;;;18.66;73.21;101454.88;2086491;28;20121;-73
2022/10/12 02:17:35;;;;;;;10.90;7.90;;;;;;;18.58;73.25;101459.38;2091588;28;20036;-74
2022/10/12 02:19:00;;;;;;;10.02;8.10;;;;;;;18.52;73.00;101451.34;2086412;28;20099;-74
2022/10/12 02:20:23;;;;;;;11.05;8.40;;;;;;;18.50;73.33;101452.28;2089630;28;20049;-73
2022/10/12 02:21:47;;;;;;;14.35;9.13;;;;;;;18.50;73.51;101462.97;2086523;28;20505;-74
2022/10/12 02:23:11;;;;;;;13.20;8.52;;;;;;;18.52;73.90;101466.50;2086389;28;20067;-73
2022/10/12 02:24:34;;;;;;;12.38;9.57;;;;;;;18.54;74.18;101464.72;2077936;28;20554;-74
2022/10/12 02:26:00;;;;;;;11.98;8.98;;;;;;;18.55;74.28;101461.16;2099660;28;20044;-73
2022/10/12 02:27:24;;;;;;;12.63;9.13;;;;;;;18.54;74.54;101465.59;2096190;28;20044;-73
2022/10/12 02:28:49;;;;;;;12.80;8.73;;;;;;;18.54;74.41;101457.59;2093891;28;20037;-72
2022/10/12 02:30:11;;;;;;;12.60;8.52;;;;;;;18.54;74.51;101462.94;2081356;28;20067;-73
2022/10/12 02:31:43;;;;;;;10.30;8.20;;;;;;;18.52;74.32;101459.38;2085367;28;20048;-73
2022/10/12 02:33:11;;;;;;;10.73;8.68;;;;;;;18.51;74.36;101462.94;2095623;28;20056;-73
2022/10/12 02:34:37;;;;;;;10.63;8.07;;;;;;;18.50;74.29;101462.97;2085934;28;20049;-73
2022/10/12 02:36:06;;;;;;;13.23;8.85;;;;;;;18.48;74.41;101462.97;2086669;28;20049;-73
2022/10/12 02:37:36;;;;;;;11.73;8.32;;;;;;;18.48;74.56;101462.97;2078773;28;20116;-73
2022/10/12 02:39:05;;;;;;;15.63;8.95;;;;;;;18.49;74.69;101466.53;2085174;28;20123;-73
2022/10/12 02:40:35;;;;;;;12.93;9.05;;;;;;;18.50;74.81;101465.63;2091896;28;20653;-73
2022/10/12 02:42:04;;;;;;;14.52;9.10;;;;;;;18.50;74.81;101471.00;2084842;28;20053;-72
2022/10/12 02:43:33;;;;;;;11.43;8.63;;;;;;;18.50;75.02;101471.00;2083328;28;20139;-72
2022/10/12 02:44:58;;;;;;;12.80;8.18;;;;;;;18.49;75.20;101470.09;2093055;28;20427;-73
2022/10/12 02:46:25;;;;;;;12.00;8.70;;;;;;;18.49;75.22;101470.09;2094305;28;20056;-73
2022/10/12 02:47:49;;;;;;;13.70;9.20;;;;;;;18.49;75.38;101474.56;2094965;28;20567;-73
2022/10/12 02:49:14;;;;;;;13.00;8.93;;;;;;;18.46;75.27;101470.09;2086075;28;20494;-73
2022/10/12 02:50:37;;;;;;;13.35;9.70;;;;;;;18.45;75.48;101483.47;2092229;28;20078;-73
2022/10/12 02:52:01;;;;;;;16.25;11.75;;;;;;;18.43;75.49;101480.84;2092612;28;20101;-73
2022/10/12 02:53:25;;;;;;;14.23;11.48;;;;;;;18.44;75.83;101476.38;2088080;28;20086;-73
2022/10/12 02:54:47;;;;;;;12.63;9.70;;;;;;;18.42;76.02;101473.69;2077883;28;20066;-73
2022/10/12 02:56:12;;;;;;;13.48;9.25;;;;;;;18.43;76.08;101479.94;2088536;28;20051;-73
2022/10/12 02:57:35;;;;;;;11.75;9.63;;;;;;;18.41;76.06;101473.69;2086361;28;20476;-73
2022/10/12 02:58:57;;;;;;;13.18;9.45;;;;;;;18.42;76.42;101478.16;2085839;28;20057;-73
2022/10/12 03:00:19;;;;;;;12.25;8.88;;;;;;;18.41;76.49;101471.03;2077538;28;20046;-73
2022/10/12 03:01:41;;;;;;;15.25;9.32;;;;;;;18.42;76.52;101480.84;2074995;28;20046;-73
2022/10/12 03:03:03;;;;;;;13.32;9.35;;;;;;;18.42;76.81;101478.16;2074829;28;20052;-73
2022/10/12 03:04:25;;;;;;;13.07;9.65;;;;;;;18.43;76.83;101485.28;2085655;28;20428;-73
2022/10/12 03:05:48;;;;;;;13.50;9.82;;;;;;;18.45;76.79;101478.13;2077385;28;20137;-73
2022/10/12 03:07:11;;;;;;;15.50;9.77;;;;;;;18.44;77.03;101473.69;2084948;28;20073;-73
2022/10/12 03:08:32;;;;;;;12.73;8.85;;;;;;;18.44;77.05;101477.25;2081197;28;20112;-73
2022/10/12 03:09:54;;;;;;;14.63;9.00;;;;;;;18.42;77.07;101472.81;2074899;28;20065;-74
2022/10/12 03:11:17;;;;;;;13.57;9.23;;;;;;;18.39;76.71;101478.16;2074283;28;20132;-73
2022/10/12 03:12:39;;;;;;;15.27;8.88;;;;;;;18.35;76.65;101473.72;2077500;28;20040;-73
2022/10/12 03:14:01;;;;;;;12.18;9.00;;;;;;;18.33;76.62;101479.97;2074681;28;20054;-74
2022/10/12 03:15:23;;;;;;;13.18;9.27;;;;;;;18.32;76.76;101474.63;2080878;28;20095;-74
2022/10/12 03:16:47;;;;;;;11.32;9.10;;;;;;;18.28;76.78;101476.44;2082469;28;20045;-74
2022/10/12 03:18:08;;;;;;;12.27;9.13;;;;;;;18.28;76.84;101481.78;2091782;28;20060;-73
2022/10/12 03:19:31;;;;;;;14.48;9.95;;;;;;;18.27;76.66;101474.66;2096364;28;20054;-73
2022/10/12 03:20:55;;;;;;;13.43;9.50;;;;;;;18.27;76.80;101468.41;2085132;28;20147;-73
2022/10/12 03:22:18;;;;;;;13.93;9.25;;;;;;;18.25;77.02;101470.19;2083121;28;20066;-73
2022/10/12 03:23:39;;;;;;;14.48;9.55;;;;;;;18.25;76.93;101473.75;2085200;28;20036;-72
2022/10/12 03:25:01;;;;;;;13.55;9.65;;;;;;;18.25;77.34;101471.09;2085764;28;20048;-73
2022/10/12 03:26:23;;;;;;;14.90;9.70;;;;;;;18.28;77.28;101472.88;2088255;28;20053;-72
2022/10/12 03:27:45;;;;;;;11.90;8.75;;;;;;;18.29;77.72;101480.91;2091165;28;20053;-72
2022/10/12 03:29:08;;;;;;;13.98;9.88;;;;;;;18.32;77.83;101475.50;2085618;28;20140;-73
2022/10/12 03:30:30;;;;;;;12.95;10.50;;;;;;;18.37;77.82;101477.31;2083256;28;20076;-73
2022/10/12 03:31:52;;;;;;;13.82;10.32;;;;;;;18.38;77.99;101479.94;2090190;28;20058;-73
2022/10/12 03:33:14;;;;;;;18.95;10.75;;;;;;;18.41;78.09;101476.38;2089503;28;20052;-73
2022/10/12 03:34:36;;;;;;;13.73;9.68;;;;;;;18.38;77.88;101479.09;2077299;28;20041;-74
2022/10/12 03:35:59;;;;;;;17.15;9.85;;;;;;;18.32;77.44;101477.28;2077585;28;20507;-73
2022/10/12 03:37:21;;;;;;;13.38;9.85;;;;;;;18.25;77.11;101473.75;2085418;28;20049;-73
2022/10/12 03:38:44;;;;;;;12.63;8.88;;;;;;;18.21;76.84;101473.78;2091465;28;20044;-72
2022/10/12 03:40:08;;;;;;;16.05;10.38;;;;;;;18.19;76.84;101478.25;2077531;28;20552;-73
2022/10/12 03:41:31;;;;;;;12.35;9.70;;;;;;;18.17;76.91;101482.72;2097866;28;20055;-73
2022/10/12 03:42:55;;;;;;;14.30;9.35;;;;;;;18.17;76.84;101488.97;2088399;28;20052;-73
2022/10/12 03:44:17;;;;;;;13.77;9.73;;;;;;;18.16;76.96;101487.19;2083508;28;20143;-73
2022/10/12 03:45:39;;;;;;;14.38;10.02;;;;;;;18.18;77.22;101482.69;2081701;28;20044;-73
2022/10/12 03:47:01;;;;;;;13.88;9.85;;;;;;;18.20;77.19;101483.59;2091516;28;20471;-73
2022/10/12 03:48:23;;;;;;;15.45;10.38;;;;;;;18.22;77.44;101486.25;2093560;28;20680;-73
2022/10/12 03:49:45;;;;;;;13.40;9.80;;;;;;;18.22;77.50;101481.81;2085576;28;20057;-72
2022/10/12 03:51:11;;;;;;;12.68;9.50;;;;;;;18.23;77.42;101482.72;2075756;28;20049;-72
2022/10/12 03:52:33;;;;;;;12.93;9.73;;;;;;;18.22;77.66;101481.81;2091502;28;20573;-72
2022/10/12 03:53:55;;;;;;;14.68;9.68;;;;;;;18.24;77.63;101485.38;2087785;28;20054;-72
2022/10/12 03:55:18;;;;;;;14.68;9.75;;;;;;;18.28;77.62;101479.13;2090342;28;20151;-72
2022/10/12 03:56:40;;;;;;;13.05;10.35;;;;;;;18.35;77.62;101479.09;2096383;28;20045;-73
2022/10/12 03:58:02;;;;;;;14.93;10.20;;;;;;;18.41;77.98;101476.38;2085503;28;20194;-72
2022/10/12 03:59:24;;;;;;;14.68;10.20;;;;;;;18.43;77.63;101472.81;2081952;28;20045;-72
2022/10/12 04:00:47;;;;;;;12.93;9.20;;;;;;;18.44;77.56;101473.69;2076876;28;20051;-72
2022/10/12 04:02:10;;;;;;;14.35;9.55;;;;;;;18.44;77.51;101469.25;2085573;28;20041;-73
2022/10/12 04:03:31;;;;;;;11.65;8.95;;;;;;;18.43;77.24;101472.81;2085244;28;20103;-73
2022/10/12 04:04:54;;;;;;;13.35;9.88;;;;;;;18.41;77.17;101471.03;2088080;28;20075;-73
2022/10/12 04:06:18;;;;;;;15.30;10.27;;;;;;;18.41;77.17;101465.69;2084433;28;20068;-73
2022/10/12 04:07:41;;;;;;;13.63;10.32;;;;;;;18.39;77.27;101471.03;2091137;28;20058;-73
2022/10/12 04:09:04;;;;;;;12.70;10.45;;;;;;;18.39;77.39;101462.13;2087694;28;20053;-73
2022/10/12 04:10:26;;;;;;;14.60;11.07;;;;;;;18.38;77.45;101468.38;2089925;28;20041;-73
2022/10/12 04:11:49;;;;;;;13.75;10.02;;;;;;;18.38;77.73;101473.72;2093637;28;20459;-73
2022/10/12 04:13:12;;;;;;;15.48;9.85;;;;;;;18.38;77.88;101468.38;2079754;28;20052;-73
2022/10/12 04:14:35;;;;;;;13.43;10.27;;;;;;;18.40;77.82;101475.47;2085877;28;20123;-73
2022/10/12 04:16:02;;;;;;;12.23;10.73;;;;;;;18.44;77.82;101471.03;2094947;28;20043;-73
2022/10/12 04:17:23;;;;;;;14.23;10.15;;;;;;;18.46;78.08;101469.22;2097141;28;20377;-73
2022/10/12 04:18:45;;;;;;;20.50;10.07;;;;;;;18.47;78.24;101461.19;2098136;28;20049;-73
2022/10/12 04:20:10;;;;;;;14.07;11.05;;;;;;;18.53;78.28;101470.97;2095627;28;20512;-73
2022/10/12 04:21:34;;;;;;;12.70;10.02;;;;;;;18.51;78.48;101465.59;2093578;28;20094;-72
2022/10/12 04:22:55;;;;;;;13.85;10.93;;;;;;;18.51;78.43;101464.75;2094350;28;20427;-72
2022/10/12 04:24:17;;;;;;;13.02;9.82;;;;;;;18.50;78.32;101463.84;2103301;28;20056;-72
2022/10/12 04:25:40;;;;;;;14.85;10.27;;;;;;;18.53;78.63;101463.81;2081547;28;20501;-72
2022/10/12 04:27:02;;;;;;;18.23;11.05;;;;;;;18.58;78.68;101475.41;2089770;28;20044;-72
2022/10/12 04:28:25;;;;;;;16.40;11.30;;;;;;;18.63;78.89;101468.28;2094778;28;20148;-72
2022/10/12 04:29:46;;;;;;;14.93;10.95;;;;;;;18.66;78.78;101468.25;2086982;28;20127;-72
2022/10/12 04:31:08;;;;;;;16.60;10.48;;;;;;;18.68;78.87;101465.56;2092496;28;20044;-72
2022/10/12 04:32:31;;;;;;;16.40;11.60;;;;;;;18.73;78.71;101466.41;2095502;28;20149;-72
2022/10/12 04:33:55;;;;;;;15.18;10.60;;;;;;;18.72;78.59;101467.31;2097994;28;20046;-72
2022/10/12 04:35:18;;;;;;;16.58;11.15;;;;;;;18.71;78.39;101462.84;2092304;28;20053;-72
2022/10/12 04:36:42;;;;;;;14.93;10.43;;;;;;;18.69;78.21;101457.53;2087137;28;20049;-72
2022/10/12 04:38:03;;;;;;;14.88;10.57;;;;;;;18.68;78.02;101460.22;2090970;28;20045;-72
2022/10/12 04:39:26;;;;;;;14.45;9.93;;;;;;;18.67;77.88;101462.00;2089641;28;20057;-72
2022/10/12 04:40:48;;;;;;;13.57;10.38;;;;;;;18.68;77.74;101462.88;2092549;28;20120;-72
2022/10/12 04:42:10;;;;;;;14.45;9.82;;;;;;;18.67;77.61;101463.78;2086998;28;20069;-72
2022/10/12 04:43:33;;;;;;;14.05;9.88;;;;;;;18.68;77.53;101457.53;2084655;28;20533;-72
2022/10/12 04:44:54;;;;;;;13.82;9.75;;;;;;;18.70;77.59;101467.34;2086799;28;20056;-72
2022/10/12 04:46:17;;;;;;;13.07;10.40;;;;;;;18.74;77.62;101461.94;2092426;28;20040;-72
2022/10/12 04:47:38;;;;;;;12.63;9.77;;;;;;;18.78;77.63;101459.25;2091002;28;20056;-72
2022/10/12 04:49:01;;;;;;;12.38;9.70;;;;;;;18.81;77.56;101461.91;2097819;28;20048;-72
2022/10/12 04:50:26;;;;;;;14.68;9.93;;;;;;;18.85;77.55;101458.28;2087480;28;20087;-72
2022/10/12 04:51:50;;;;;;;16.67;10.73;;;;;;;18.91;77.46;101470.75;2091403;28;20059;-72
2022/10/12 04:53:12;;;;;;;13.30;9.32;;;;;;;18.94;77.55;101463.59;2095208;28;20064;-72
2022/10/12 04:54:34;;;;;;;14.25;10.43;;;;;;;19.00;77.87;101463.53;2086727;28;20033;-72
2022/10/12 04:55:57;;;;;;;12.88;9.45;;;;;;;19.05;77.73;101461.72;2086940;28;20041;-72
2022/10/12 04:57:19;;;;;;;13.52;10.05;;;;;;;19.09;77.84;101460.81;2086593;28;20467;-72
2022/10/12 04:58:42;;;;;;;12.80;9.70;;;;;;;19.15;77.94;101458.97;2095030;28;20467;-73
2022/10/12 05:00:05;;;;;;;13.40;9.13;;;;;;;19.20;77.79;101459.81;2093241;28;20040;-72
2022/10/12 05:01:28;;;;;;;14.60;10.00;;;;;;;19.21;77.80;101459.81;2079378;28;20541;-72
2022/10/12 05:02:51;;;;;;;12.77;9.57;;;;;;;19.24;77.55;101467.78;2092219;28;20523;-72
2022/10/12 05:04:14;;;;;;;19.48;9.55;;;;;;;19.28;77.66;101468.69;2079346;28;20084;-72
2022/10/12 05:05:36;;;;;;;14.20;9.10;;;;;;;19.32;77.46;101460.59;2084326;28;20045;-72
2022/10/12 05:07:00;;;;;;;18.10;9.60;;;;;;;19.36;77.71;101458.78;2086632;28;20064;-73
2022/10/12 05:08:23;;;;;;;16.08;10.25;;;;;;;19.40;77.44;101465.88;2078599;28;20045;-72
2022/10/12 05:09:46;;;;;;;13.93;9.20;;;;;;;19.42;77.66;101464.97;2080147;28;20064;-72
2022/10/12 05:11:08;;;;;;;13.07;9.13;;;;;;;19.45;77.56;101469.41;2090253;28;20075;-72
2022/10/12 05:12:30;;;;;;;13.93;9.27;;;;;;;19.48;77.62;101464.94;2084071;28;20044;-72
2022/10/12 05:13:53;;;;;;;13.00;9.48;;;;;;;19.53;77.46;101469.38;2081097;28;20045;-72
2022/10/12 05:15:14;;;;;;;13.90;10.02;;;;;;;19.54;77.34;101472.03;2084430;28;20053;-72
2022/10/12 05:16:37;;;;;;;11.02;8.93;;;;;;;19.57;77.42;101473.78;2082305;28;20098;-72
2022/10/12 05:17:59;;;;;;;12.95;8.75;;;;;;;19.57;77.47;101477.34;2092552;28;20155;-72
2022/10/12 05:19:21;;;;;;;16.52;9.52;;;;;;;19.60;77.68;101479.13;2091880;28;20056;-72
2022/10/12 05:20:44;;;;;;;13.68;9.48;;;;;;;19.58;77.54;101479.13;2081376;28;20052;-72
2022/10/12 05:22:08;;;;;;;13.80;9.30;;;;;;;19.59;77.45;101474.66;2078790;28;20075;-72
2022/10/12 05:23:30;;;;;;;14.35;8.75;;;;;;;19.58;77.41;101479.13;2092841;28;20107;-72
2022/10/12 05:24:52;;;;;;;12.88;9.05;;;;;;;19.59;77.47;101480.00;2089333;28;20052;-72
2022/10/12 05:26:13;;;;;;;13.20;9.95;;;;;;;19.60;77.29;101482.69;2085918;28;20061;-72
2022/10/12 05:27:36;;;;;;;15.35;10.45;;;;;;;19.62;77.39;101482.69;2081805;28;20128;-72
2022/10/12 05:28:57;;;;;;;20.65;11.05;;;;;;;19.62;77.32;101496.06;2083987;28;20059;-72
2022/10/12 05:30:20;;;;;;;12.85;9.45;;;;;;;19.61;77.54;101487.16;2084367;28;20159;-72
2022/10/12 05:31:42;;;;;;;12.65;10.15;;;;;;;19.61;77.20;101488.94;2084294;28;20052;-72
2022/10/12 05:33:04;;;;;;;15.52;9.88;;;;;;;19.59;76.95;101496.09;2092297;28;20079;-72
2022/10/12 05:34:26;;;;;;;13.48;9.40;;;;;;;19.59;76.83;101501.44;2086169;28;20047;-72
2022/10/12 05:35:49;;;;;;;15.18;9.45;;;;;;;19.60;77.18;101496.06;2075893;28;20140;-73
2022/10/12 05:37:13;;;;;;;15.23;10.25;;;;;;;19.62;77.13;101496.06;2084248;28;20220;-72
2022/10/12 05:38:34;;;;;;;11.63;8.65;;;;;;;19.61;77.27;101502.31;2095080;28;20037;-72
2022/10/12 05:39:57;;;;;;;14.30;8.35;;;;;;;19.61;77.24;101502.31;2089283;28;20057;-73
2022/10/12 05:41:20;;;;;;;20.30;9.88;;;;;;;19.61;77.26;101503.22;2080351;28;20428;-72
2022/10/12 05:42:43;;;;;;;12.70;8.98;;;;;;;19.64;77.41;101503.16;2079610;28;20057;-73
2022/10/12 05:44:05;;;;;;;11.90;9.05;;;;;;;19.66;77.54;101505.84;2083376;28;20456;-73
2022/10/12 05:45:27;;;;;;;13.48;8.57;;;;;;;19.67;77.42;101507.63;2084534;28;20524;-73
2022/10/12 05:46:50;;;;;;;12.27;8.70;;;;;;;19.71;77.46;101509.34;2084276;28;20091;-72
2022/10/12 05:48:13;;;;;;;11.75;9.00;;;;;;;19.75;77.69;101503.97;2091753;28;20052;-72
2022/10/12 05:49:34;;;;;;;12.57;8.57;;;;;;;19.88;77.97;101510.97;2083243;28;20037;-73
2022/10/12 05:50:57;;;;;;;9.45;7.90;;;;;;;20.10;78.16;101516.09;2074766;28;20493;-72
2022/10/12 05:52:21;;;;;;;17.40;8.68;;;;;;;20.30;78.26;101512.25;2083929;28;20045;-72
2022/10/12 05:53:43;;;;;;;11.63;7.72;;;;;;;20.49;78.20;101520.09;2086769;28;20690;-72
2022/10/12 05:55:08;;;;;;;13.48;8.70;;;;;;;20.67;77.94;101511.84;2080741;28;20053;-72
2022/10/12 05:56:31;;;;;;;12.73;7.15;;;;;;;20.85;77.76;101516.94;2088980;28;20056;-72
2022/10/12 05:57:54;;;;;;;9.57;7.57;;;;;;;20.97;77.24;101514.06;2094609;28;20041;-72
2022/10/12 05:59:16;;;;;;;14.10;7.22;;;;;;;21.06;76.72;101518.41;2079335;28;20053;-72
2022/10/12 06:00:39;;;;;;;12.90;7.22;;;;;;;21.24;76.61;101510.09;2080186;28;20052;-72
2022/10/12 06:02:03;;;;;;;9.77;7.10;;;;;;;21.49;76.22;101524.00;2082861;28;20049;-72
2022/10/12 06:03:25;;;;;;;11.32;6.68;;;;;;;21.71;75.79;101525.41;2091247;28;20053;-72
2022/10/12 06:04:46;;;;;;;9.65;6.20;;;;;;;21.93;75.11;101525.88;2086199;28;20041;-71
2022/10/12 06:06:10;;;;;;;13.07;6.80;;;;;;;22.08;74.55;101514.88;2088584;28;20099;-72
2022/10/12 06:07:35;;;;;;;9.18;6.03;;;;;;;22.26;73.73;101518.97;2078552;28;20494;-71
2022/10/12 06:08:57;;;;;;;9.63;5.78;;;;;;;22.39;72.80;101515.13;2075575;28;20041;-71
2022/10/12 06:10:20;;;;;;;10.30;6.40;;;;;;;22.57;72.08;101516.56;2088867;28;20047;-71
2022/10/12 06:11:42;;;;;;;8.27;5.50;;;;;;;22.78;71.33;101518.78;2086541;28;20060;-71
2022/10/12 06:13:04;;;;;;;8.15;5.65;;;;;;;23.00;70.90;101521.88;2084027;28;20131;-72
2022/10/12 06:14:27;;;;;;;10.60;5.63;;;;;;;23.19;70.04;101516.91;2092153;28;20500;-72
2022/10/12 06:15:50;;;;;;;8.88;5.80;;;;;;;23.33;69.20;101512.97;2103103;28;20064;-73
2022/10/12 06:17:12;;;;;;;8.18;5.75;;;;;;;23.41;68.70;101516.38;2082461;28;20078;-72
2022/10/12 06:18:35;;;;;;;9.25;6.50;;;;;;;23.47;68.13;101515.34;2084253;28;20165;-72
2022/10/12 06:19:57;;;;;;;7.20;5.60;;;;;;;23.43;67.83;101513.66;2100499;28;20043;-72
2022/10/12 06:21:20;;;;;;;7.95;5.57;;;;;;;23.38;67.37;101513.72;2091364;28;20635;-71
2022/10/12 06:22:44;;;;;;;9.32;5.80;;;;;;;23.30;67.61;101517.56;2086363;28;20106;-72
2022/10/12 06:24:07;;;;;;;10.18;6.20;;;;;;;23.21;67.62;101512.41;2087949;28;20413;-71
2022/10/12 06:25:30;;;;;;;9.60;6.05;;;;;;;23.12;67.74;101523.38;2090619;28;20486;-72
2022/10/12 06:26:53;;;;;;;12.00;6.43;;;;;;;22.99;67.82;101515.59;2080628;28;20049;-72